Terminal Aerodrome Forecast
Issued by NWS

Home | Current Version | Previous Version | Text Only | Print | Product List | Glossary On
Versions: 1 2 3 4 5 6 7 8 9 10 11 12 13 14 15 16 17 18
000
FTUS44 KMAF 210306 AAB
TAFFST
TAF AMD
KFST 210306Z 2103/2124 12014G24KT P6SM BKN200
     FM210700 12012KT P6SM OVC030
     FM211000 12013KT P6SM OVC019
     FM211500 14019KT P6SM OVC030
     FM212100 13020G30KT P6SM SCT050 BKN250=

USA.gov is the U.S. government's official web portal to all federal, state and local government web resources and services.